VLG5YB LIRQ-LICC
Flight info
| Callsign | VLG5YB |
|---|---|
| Flight time | 1h 18m |
| Altitude | 19000 |
| Route | KUGIX L995 IBRID/N0443F370 DCT AMTEL DCT SOVAN DCT GIKIN DCT LAT DCT VAKOR DCT PELEN DCT UXUTA DCT LIBRO |
| Aircraft | A21N/M-SDE2E3FGHIRWXY/LB1 |
Departure
| Time | 2026-04-29 14:31 |
|---|---|
| Airport | Florence Airport, Peretola (LIRQ) |
Arrival
| Time | 2026-04-29 15:50 |
|---|---|
| Airport | Catania-Fontanarossa Airport (LICC) |
| Time | Latitude | Longitude | Altitude | Speed | Heading |
|---|---|---|---|---|---|
| 2026-04-29 14:06 | 43.80297 | 11.20031 | 129 ft | 0 kts | 159° |
| 2026-04-29 14:21 | 43.80306 | 11.20027 | 130 ft | 3 kts | 161° |
| 2026-04-29 14:21 | 43.80325 | 11.20019 | 130 ft | 3 kts | 171° |
| 2026-04-29 14:21 | 43.80345 | 11.20017 | 130 ft | 3 kts | 192° |
| 2026-04-29 14:22 | 43.80360 | 11.20026 | 129 ft | 3 kts | 237° |
| 2026-04-29 14:22 | 43.80364 | 11.20033 | 130 ft | 0 kts | 248° |
| 2026-04-29 14:27 | 43.80362 | 11.20029 | 132 ft | 1 kts | 249° |
| 2026-04-29 14:27 | 43.80357 | 11.20007 | 132 ft | 3 kts | 252° |
| 2026-04-29 14:27 | 43.80356 | 11.19991 | 132 ft | 2 kts | 272° |
| 2026-04-29 14:28 | 43.80426 | 11.19876 | 134 ft | 2 kts | 317° |
| 2026-04-29 14:28 | 43.80446 | 11.19850 | 134 ft | 6 kts | 317° |
| 2026-04-29 14:28 | 43.80483 | 11.19799 | 133 ft | 9 kts | 308° |
| 2026-04-29 14:28 | 43.80520 | 11.19764 | 133 ft | 2 kts | 8° |
| 2026-04-29 14:29 | 43.80523 | 11.19768 | 133 ft | 0 kts | 43° |
| 2026-04-29 14:31 | 43.80572 | 11.19835 | 134 ft | 45 kts | 45° |
| 2026-04-29 14:31 | 43.81016 | 11.20521 | 126 ft | 147 kts | 47° |
| 2026-04-29 14:31 | 43.81803 | 11.21725 | 760 ft | 182 kts | 48° |
| 2026-04-29 14:32 | 43.82898 | 11.22608 | 1876 ft | 189 kts | 6° |
| 2026-04-29 14:32 | 43.84113 | 11.22135 | 3128 ft | 179 kts | 317° |
| 2026-04-29 14:32 | 43.84602 | 11.20702 | 4321 ft | 162 kts | 266° |
| 2026-04-29 14:32 | 43.84277 | 11.19303 | 5271 ft | 150 kts | 239° |
| 2026-04-29 14:33 | 43.83691 | 11.18067 | 6107 ft | 164 kts | 236° |
| 2026-04-29 14:33 | 43.83000 | 11.16635 | 6649 ft | 191 kts | 238° |
| 2026-04-29 14:33 | 43.82280 | 11.15035 | 7421 ft | 198 kts | 240° |
| 2026-04-29 14:33 | 43.81587 | 11.13387 | 8382 ft | 198 kts | 243° |
| 2026-04-29 14:34 | 43.81160 | 11.11581 | 9324 ft | 202 kts | 261° |
| 2026-04-29 14:34 | 43.81069 | 11.09561 | 9961 ft | 219 kts | 269° |
| 2026-04-29 14:34 | 43.81092 | 11.07401 | 10685 ft | 228 kts | 271° |
| 2026-04-29 14:34 | 43.81130 | 11.05208 | 11521 ft | 234 kts | 271° |
| 2026-04-29 14:35 | 43.81311 | 11.02923 | 12580 ft | 237 kts | 284° |
| 2026-04-29 14:35 | 43.82053 | 11.00917 | 13667 ft | 242 kts | 309° |
| 2026-04-29 14:35 | 43.83451 | 10.99557 | 14605 ft | 254 kts | 338° |
| 2026-04-29 14:35 | 43.85233 | 10.99349 | 15516 ft | 266 kts | 8° |
| 2026-04-29 14:36 | 43.86904 | 11.00488 | 16409 ft | 277 kts | 41° |
| 2026-04-29 14:36 | 43.87932 | 11.02775 | 17268 ft | 287 kts | 74° |
| 2026-04-29 14:36 | 43.87949 | 11.05540 | 18106 ft | 293 kts | 107° |
| 2026-04-29 14:36 | 43.87034 | 11.08061 | 18873 ft | 295 kts | 125° |
| 2026-04-29 14:37 | 43.85844 | 11.10406 | 19649 ft | 300 kts | 127° |
| 2026-04-29 14:37 | 43.84617 | 11.12773 | 20442 ft | 305 kts | 127° |
| 2026-04-29 14:37 | 43.83391 | 11.15195 | 21227 ft | 309 kts | 126° |
| 2026-04-29 14:37 | 43.82165 | 11.17668 | 22005 ft | 314 kts | 126° |
| 2026-04-29 14:38 | 43.80730 | 11.19944 | 22734 ft | 316 kts | 145° |
| 2026-04-29 14:38 | 43.78815 | 11.21539 | 23168 ft | 329 kts | 157° |
| 2026-04-29 14:38 | 43.76671 | 11.22898 | 23477 ft | 348 kts | 159° |
| 2026-04-29 14:38 | 43.74411 | 11.24268 | 23738 ft | 367 kts | 159° |
| 2026-04-29 14:39 | 43.72022 | 11.25728 | 24000 ft | 384 kts | 158° |
| 2026-04-29 14:39 | 43.69534 | 11.27267 | 24242 ft | 400 kts | 158° |
| 2026-04-29 14:39 | 43.66941 | 11.28881 | 24479 ft | 416 kts | 158° |
| 2026-04-29 14:39 | 43.64256 | 11.30559 | 24749 ft | 429 kts | 158° |
| 2026-04-29 14:40 | 43.61510 | 11.32278 | 25141 ft | 438 kts | 158° |
| 2026-04-29 14:40 | 43.58713 | 11.34028 | 25646 ft | 443 kts | 158° |
| 2026-04-29 14:40 | 43.55897 | 11.35793 | 26196 ft | 446 kts | 158° |
| 2026-04-29 14:40 | 43.53094 | 11.37680 | 26739 ft | 450 kts | 155° |
| 2026-04-29 14:41 | 43.50311 | 11.39696 | 27266 ft | 454 kts | 154° |
| 2026-04-29 14:41 | 43.47559 | 11.41759 | 27773 ft | 457 kts | 153° |
| 2026-04-29 14:41 | 43.44769 | 11.43879 | 28260 ft | 460 kts | 153° |
| 2026-04-29 14:41 | 43.41964 | 11.46011 | 28749 ft | 463 kts | 154° |
| 2026-04-29 14:42 | 43.39130 | 11.48152 | 29221 ft | 466 kts | 154° |
| 2026-04-29 14:42 | 43.36277 | 11.50292 | 29654 ft | 469 kts | 154° |
| 2026-04-29 14:42 | 43.33399 | 11.52437 | 30089 ft | 472 kts | 154° |
| 2026-04-29 14:42 | 43.30510 | 11.54582 | 30514 ft | 473 kts | 154° |
| 2026-04-29 14:43 | 43.27616 | 11.56727 | 31043 ft | 471 kts | 154° |
| 2026-04-29 14:43 | 43.24734 | 11.58860 | 31586 ft | 469 kts | 154° |
| 2026-04-29 14:43 | 43.21866 | 11.60980 | 32136 ft | 466 kts | 154° |
| 2026-04-29 14:43 | 43.19021 | 11.63083 | 32672 ft | 464 kts | 154° |
| 2026-04-29 14:44 | 43.16182 | 11.65178 | 33135 ft | 463 kts | 154° |
| 2026-04-29 14:44 | 43.13347 | 11.67268 | 33591 ft | 462 kts | 154° |
| 2026-04-29 14:44 | 43.10515 | 11.69353 | 34002 ft | 462 kts | 154° |
| 2026-04-29 14:44 | 43.07716 | 11.71412 | 34362 ft | 462 kts | 155° |
| 2026-04-29 14:45 | 43.04888 | 11.73491 | 34719 ft | 461 kts | 155° |
| 2026-04-29 14:45 | 43.02057 | 11.75570 | 35064 ft | 461 kts | 155° |
| 2026-04-29 14:45 | 42.99237 | 11.77640 | 35460 ft | 459 kts | 155° |
| 2026-04-29 14:45 | 42.96423 | 11.79702 | 35811 ft | 458 kts | 155° |
| 2026-04-29 14:46 | 42.93616 | 11.81757 | 36139 ft | 458 kts | 155° |
| 2026-04-29 14:46 | 42.90806 | 11.83811 | 36449 ft | 458 kts | 155° |
| 2026-04-29 14:46 | 42.87994 | 11.85865 | 36768 ft | 458 kts | 155° |
| 2026-04-29 14:46 | 42.85184 | 11.87914 | 36997 ft | 459 kts | 155° |
| 2026-04-29 14:47 | 42.82377 | 11.89960 | 37025 ft | 458 kts | 155° |
| 2026-04-29 14:47 | 42.76764 | 11.94043 | 37029 ft | 457 kts | 155° |
| 2026-04-29 14:48 | 42.71149 | 11.98116 | 37036 ft | 457 kts | 155° |
| 2026-04-29 14:48 | 42.65542 | 12.02177 | 37042 ft | 457 kts | 155° |
| 2026-04-29 14:49 | 42.59949 | 12.06320 | 37043 ft | 458 kts | 153° |
| 2026-04-29 14:49 | 42.54520 | 12.10748 | 37046 ft | 458 kts | 151° |
| 2026-04-29 14:50 | 42.49086 | 12.15281 | 37049 ft | 458 kts | 151° |
| 2026-04-29 14:50 | 42.43645 | 12.19779 | 37035 ft | 458 kts | 152° |
| 2026-04-29 14:51 | 42.38193 | 12.24243 | 37037 ft | 457 kts | 152° |
| 2026-04-29 14:51 | 42.33659 | 12.27939 | 37035 ft | 458 kts | 152° |
| 2026-04-29 14:52 | 42.28206 | 12.32375 | 37040 ft | 457 kts | 152° |
| 2026-04-29 14:52 | 42.22751 | 12.36804 | 37022 ft | 457 kts | 152° |
| 2026-04-29 14:53 | 42.17291 | 12.41230 | 37035 ft | 458 kts | 152° |
| 2026-04-29 14:53 | 42.11831 | 12.45648 | 37043 ft | 458 kts | 152° |
| 2026-04-29 14:54 | 42.06367 | 12.50059 | 37047 ft | 458 kts | 152° |
| 2026-04-29 14:54 | 42.00887 | 12.54474 | 37045 ft | 458 kts | 152° |
| 2026-04-29 14:55 | 41.95455 | 12.58842 | 37050 ft | 458 kts | 152° |
| 2026-04-29 14:55 | 41.89985 | 12.63232 | 37037 ft | 458 kts | 152° |
| 2026-04-29 14:56 | 41.84515 | 12.67612 | 37050 ft | 458 kts | 152° |
| 2026-04-29 14:56 | 41.79041 | 12.71987 | 37046 ft | 458 kts | 152° |
| 2026-04-29 14:57 | 41.73562 | 12.76358 | 37044 ft | 457 kts | 152° |
| 2026-04-29 14:57 | 41.68093 | 12.80711 | 37035 ft | 458 kts | 152° |
| 2026-04-29 14:58 | 41.62612 | 12.85065 | 37049 ft | 458 kts | 152° |
| 2026-04-29 14:58 | 41.57132 | 12.89409 | 37047 ft | 458 kts | 152° |
| 2026-04-29 14:59 | 41.51416 | 12.93040 | 37050 ft | 453 kts | 162° |
| 2026-04-29 14:59 | 41.45504 | 12.95973 | 37018 ft | 453 kts | 163° |
| 2026-04-29 15:00 | 41.39602 | 12.98747 | 37033 ft | 453 kts | 164° |
| 2026-04-29 15:00 | 41.33657 | 13.01531 | 37035 ft | 453 kts | 164° |
| 2026-04-29 15:01 | 41.27714 | 13.04330 | 37036 ft | 453 kts | 164° |
| 2026-04-29 15:01 | 41.21776 | 13.07133 | 37030 ft | 452 kts | 164° |
| 2026-04-29 15:02 | 41.15848 | 13.09929 | 37028 ft | 452 kts | 164° |
| 2026-04-29 15:02 | 41.09914 | 13.12720 | 37028 ft | 452 kts | 164° |
| 2026-04-29 15:03 | 41.03984 | 13.15504 | 37030 ft | 452 kts | 164° |
| 2026-04-29 15:03 | 40.98051 | 13.18284 | 37027 ft | 452 kts | 164° |
| 2026-04-29 15:04 | 40.92125 | 13.21056 | 37028 ft | 452 kts | 164° |
| 2026-04-29 15:04 | 40.86197 | 13.23822 | 37028 ft | 452 kts | 164° |
| 2026-04-29 15:05 | 40.80300 | 13.26569 | 37026 ft | 452 kts | 164° |
| 2026-04-29 15:05 | 40.74366 | 13.29329 | 37028 ft | 452 kts | 164° |
| 2026-04-29 15:06 | 40.68435 | 13.32081 | 37029 ft | 452 kts | 164° |
| 2026-04-29 15:06 | 40.62505 | 13.34828 | 37029 ft | 452 kts | 165° |
| 2026-04-29 15:07 | 40.56562 | 13.37576 | 37022 ft | 452 kts | 165° |
| 2026-04-29 15:07 | 40.50624 | 13.40316 | 37029 ft | 452 kts | 165° |
| 2026-04-29 15:08 | 40.44725 | 13.43033 | 37029 ft | 452 kts | 165° |
| 2026-04-29 15:08 | 40.38790 | 13.45762 | 37029 ft | 452 kts | 165° |
| 2026-04-29 15:09 | 40.32846 | 13.48490 | 37013 ft | 452 kts | 165° |
| 2026-04-29 15:09 | 40.26904 | 13.51212 | 37027 ft | 452 kts | 165° |
| 2026-04-29 15:10 | 40.20962 | 13.53928 | 37028 ft | 453 kts | 165° |
| 2026-04-29 15:10 | 40.15007 | 13.56645 | 37023 ft | 453 kts | 165° |
| 2026-04-29 15:11 | 40.09098 | 13.59337 | 37011 ft | 453 kts | 165° |
| 2026-04-29 15:11 | 40.03143 | 13.62044 | 37022 ft | 453 kts | 165° |
| 2026-04-29 15:12 | 39.97177 | 13.64752 | 37015 ft | 453 kts | 165° |
| 2026-04-29 15:12 | 39.91217 | 13.67451 | 37024 ft | 453 kts | 165° |
| 2026-04-29 15:13 | 39.85260 | 13.70145 | 37023 ft | 453 kts | 165° |
| 2026-04-29 15:13 | 39.79293 | 13.72838 | 37019 ft | 453 kts | 165° |
| 2026-04-29 15:14 | 39.73329 | 13.75525 | 37017 ft | 453 kts | 165° |
| 2026-04-29 15:14 | 39.67399 | 13.78191 | 37017 ft | 453 kts | 165° |
| 2026-04-29 15:15 | 39.61434 | 13.80869 | 37026 ft | 454 kts | 165° |
| 2026-04-29 15:15 | 39.55466 | 13.83542 | 37015 ft | 454 kts | 165° |
| 2026-04-29 15:16 | 39.49493 | 13.86213 | 37026 ft | 454 kts | 165° |
| 2026-04-29 15:16 | 39.43502 | 13.88887 | 37013 ft | 455 kts | 166° |
| 2026-04-29 15:17 | 39.37505 | 13.91560 | 37011 ft | 456 kts | 166° |
| 2026-04-29 15:17 | 39.31506 | 13.94228 | 37011 ft | 456 kts | 166° |
| 2026-04-29 15:18 | 39.25505 | 13.96892 | 37013 ft | 456 kts | 166° |
| 2026-04-29 15:18 | 39.19498 | 13.99555 | 36798 ft | 455 kts | 166° |
| 2026-04-29 15:18 | 39.16503 | 14.00881 | 36518 ft | 456 kts | 166° |
| 2026-04-29 15:19 | 39.13499 | 14.02208 | 36263 ft | 457 kts | 166° |
| 2026-04-29 15:19 | 39.10494 | 14.03535 | 36009 ft | 457 kts | 166° |
| 2026-04-29 15:19 | 39.07478 | 14.04865 | 35753 ft | 457 kts | 166° |
| 2026-04-29 15:19 | 39.04468 | 14.06193 | 35506 ft | 457 kts | 166° |
| 2026-04-29 15:20 | 39.01489 | 14.07505 | 35263 ft | 457 kts | 166° |
| 2026-04-29 15:20 | 38.98476 | 14.08832 | 35016 ft | 457 kts | 166° |
| 2026-04-29 15:20 | 38.95469 | 14.10154 | 34771 ft | 457 kts | 166° |
| 2026-04-29 15:20 | 38.92458 | 14.11477 | 34512 ft | 458 kts | 166° |
| 2026-04-29 15:21 | 38.89439 | 14.12802 | 34292 ft | 458 kts | 166° |
| 2026-04-29 15:21 | 38.86425 | 14.14124 | 34047 ft | 458 kts | 166° |
| 2026-04-29 15:21 | 38.83440 | 14.15575 | 33773 ft | 461 kts | 161° |
| 2026-04-29 15:21 | 38.80500 | 14.17242 | 33500 ft | 462 kts | 160° |
| 2026-04-29 15:22 | 38.77578 | 14.18958 | 33230 ft | 463 kts | 159° |
| 2026-04-29 15:22 | 38.74661 | 14.20705 | 32962 ft | 463 kts | 159° |
| 2026-04-29 15:22 | 38.71745 | 14.22467 | 32695 ft | 464 kts | 159° |
| 2026-04-29 15:22 | 38.68821 | 14.24238 | 32421 ft | 465 kts | 159° |
| 2026-04-29 15:23 | 38.65889 | 14.26009 | 32155 ft | 466 kts | 159° |
| 2026-04-29 15:23 | 38.62956 | 14.27776 | 31905 ft | 466 kts | 159° |
| 2026-04-29 15:23 | 38.60016 | 14.29543 | 31650 ft | 467 kts | 159° |
| 2026-04-29 15:23 | 38.57075 | 14.31306 | 31399 ft | 467 kts | 159° |
| 2026-04-29 15:24 | 38.54123 | 14.33073 | 31148 ft | 468 kts | 159° |
| 2026-04-29 15:24 | 38.51174 | 14.34836 | 30895 ft | 468 kts | 159° |
| 2026-04-29 15:24 | 38.48219 | 14.36600 | 30657 ft | 469 kts | 158° |
| 2026-04-29 15:24 | 38.45266 | 14.38361 | 30407 ft | 469 kts | 158° |
| 2026-04-29 15:25 | 38.42299 | 14.40129 | 30166 ft | 469 kts | 158° |
| 2026-04-29 15:25 | 38.39336 | 14.41894 | 29896 ft | 470 kts | 158° |
| 2026-04-29 15:25 | 38.36373 | 14.43658 | 29614 ft | 470 kts | 158° |
| 2026-04-29 15:25 | 38.33421 | 14.45415 | 28876 ft | 466 kts | 158° |
| 2026-04-29 15:26 | 38.30493 | 14.47156 | 28012 ft | 463 kts | 158° |
| 2026-04-29 15:26 | 38.27640 | 14.48854 | 27378 ft | 454 kts | 158° |
| 2026-04-29 15:26 | 38.24802 | 14.50541 | 26675 ft | 447 kts | 158° |
| 2026-04-29 15:26 | 38.22003 | 14.52203 | 25978 ft | 441 kts | 158° |
| 2026-04-29 15:27 | 38.19237 | 14.53842 | 25287 ft | 436 kts | 158° |
| 2026-04-29 15:27 | 38.16504 | 14.55459 | 24603 ft | 431 kts | 158° |
| 2026-04-29 15:27 | 38.13798 | 14.57058 | 23901 ft | 427 kts | 158° |
| 2026-04-29 15:27 | 38.11115 | 14.58642 | 23123 ft | 424 kts | 158° |
| 2026-04-29 15:28 | 38.08458 | 14.60210 | 22405 ft | 418 kts | 158° |
| 2026-04-29 15:28 | 38.06682 | 14.61259 | 21938 ft | 415 kts | 158° |
| 2026-04-29 15:28 | 38.03244 | 14.63286 | 21027 ft | 408 kts | 158° |
| 2026-04-29 15:28 | 38.00689 | 14.64792 | 20369 ft | 404 kts | 158° |
| 2026-04-29 15:29 | 37.98142 | 14.66273 | 19668 ft | 400 kts | 160° |
| 2026-04-29 15:29 | 37.92817 | 14.67392 | 18279 ft | 383 kts | 189° |
| 2026-04-29 15:30 | 37.87986 | 14.65061 | 16889 ft | 366 kts | 211° |
| 2026-04-29 15:30 | 37.85783 | 14.63492 | 16266 ft | 360 kts | 212° |
| 2026-04-29 15:30 | 37.83616 | 14.61924 | 15637 ft | 355 kts | 212° |
| 2026-04-29 15:30 | 37.81486 | 14.60380 | 15016 ft | 351 kts | 212° |
| 2026-04-29 15:31 | 37.79380 | 14.58859 | 14407 ft | 346 kts | 213° |
| 2026-04-29 15:31 | 37.77296 | 14.57356 | 13801 ft | 342 kts | 213° |
| 2026-04-29 15:31 | 37.75237 | 14.55873 | 13142 ft | 339 kts | 212° |
| 2026-04-29 15:31 | 37.73227 | 14.54428 | 12578 ft | 333 kts | 211° |
| 2026-04-29 15:32 | 37.71172 | 14.53301 | 12471 ft | 313 kts | 198° |
| 2026-04-29 15:32 | 37.69066 | 14.52990 | 12415 ft | 298 kts | 180° |
| 2026-04-29 15:32 | 37.67093 | 14.53526 | 12325 ft | 287 kts | 161° |
| 2026-04-29 15:32 | 37.65404 | 14.54789 | 12196 ft | 279 kts | 143° |
| 2026-04-29 15:33 | 37.64147 | 14.56588 | 12069 ft | 271 kts | 125° |
| 2026-04-29 15:33 | 37.63372 | 14.58737 | 11793 ft | 272 kts | 108° |
| 2026-04-29 15:33 | 37.63129 | 14.61131 | 11360 ft | 277 kts | 90° |
| 2026-04-29 15:33 | 37.63243 | 14.63556 | 10976 ft | 276 kts | 86° |
| 2026-04-29 15:34 | 37.63427 | 14.65948 | 10753 ft | 272 kts | 85° |
| 2026-04-29 15:34 | 37.63609 | 14.68318 | 10523 ft | 270 kts | 86° |
| 2026-04-29 15:34 | 37.63533 | 14.70640 | 10293 ft | 266 kts | 106° |
| 2026-04-29 15:34 | 37.62714 | 14.72672 | 10071 ft | 259 kts | 135° |
| 2026-04-29 15:35 | 37.61269 | 14.73926 | 9846 ft | 250 kts | 163° |
| 2026-04-29 15:35 | 37.59614 | 14.74399 | 9677 ft | 240 kts | 174° |
| 2026-04-29 15:35 | 37.57964 | 14.74665 | 9466 ft | 239 kts | 175° |
| 2026-04-29 15:35 | 37.56314 | 14.74654 | 9229 ft | 236 kts | 193° |
| 2026-04-29 15:36 | 37.54849 | 14.73819 | 8978 ft | 232 kts | 220° |
| 2026-04-29 15:36 | 37.53903 | 14.72206 | 8773 ft | 233 kts | 249° |
| 2026-04-29 15:36 | 37.53546 | 14.70213 | 8585 ft | 234 kts | 261° |
| 2026-04-29 15:36 | 37.53422 | 14.68833 | 8443 ft | 236 kts | 263° |
| 2026-04-29 15:37 | 37.53268 | 14.66771 | 8237 ft | 237 kts | 264° |
| 2026-04-29 15:37 | 37.53111 | 14.64706 | 8028 ft | 236 kts | 263° |
| 2026-04-29 15:37 | 37.52946 | 14.62655 | 7907 ft | 235 kts | 263° |
| 2026-04-29 15:37 | 37.52776 | 14.60630 | 7798 ft | 236 kts | 263° |
| 2026-04-29 15:38 | 37.52600 | 14.58573 | 7681 ft | 235 kts | 262° |
| 2026-04-29 15:38 | 37.52422 | 14.56530 | 7557 ft | 235 kts | 262° |
| 2026-04-29 15:38 | 37.52242 | 14.54482 | 7436 ft | 235 kts | 262° |
| 2026-04-29 15:38 | 37.52061 | 14.52437 | 7318 ft | 236 kts | 263° |
| 2026-04-29 15:39 | 37.51879 | 14.50382 | 7201 ft | 236 kts | 262° |
| 2026-04-29 15:39 | 37.51695 | 14.48330 | 7077 ft | 236 kts | 262° |
| 2026-04-29 15:39 | 37.51262 | 14.46348 | 6947 ft | 234 kts | 240° |
| 2026-04-29 15:39 | 37.50171 | 14.44877 | 6842 ft | 231 kts | 208° |
| 2026-04-29 15:40 | 37.48646 | 14.44365 | 6714 ft | 229 kts | 180° |
| 2026-04-29 15:40 | 37.47049 | 14.44488 | 6598 ft | 231 kts | 173° |
| 2026-04-29 15:40 | 37.45449 | 14.44737 | 6479 ft | 232 kts | 172° |
| 2026-04-29 15:40 | 37.43867 | 14.45090 | 6353 ft | 230 kts | 162° |
| 2026-04-29 15:41 | 37.42506 | 14.46084 | 6233 ft | 228 kts | 134° |
| 2026-04-29 15:41 | 37.41735 | 14.47810 | 6121 ft | 228 kts | 102° |
| 2026-04-29 15:41 | 37.41676 | 14.49799 | 6004 ft | 229 kts | 86° |
| 2026-04-29 15:41 | 37.41852 | 14.51799 | 5880 ft | 230 kts | 83° |
| 2026-04-29 15:42 | 37.42058 | 14.53793 | 5771 ft | 230 kts | 84° |
| 2026-04-29 15:42 | 37.42258 | 14.55785 | 5646 ft | 229 kts | 84° |
| 2026-04-29 15:42 | 37.42448 | 14.57773 | 5529 ft | 229 kts | 84° |
| 2026-04-29 15:42 | 37.42632 | 14.59755 | 5415 ft | 228 kts | 84° |
| 2026-04-29 15:43 | 37.42812 | 14.61735 | 5297 ft | 227 kts | 85° |
| 2026-04-29 15:43 | 37.42988 | 14.63717 | 5092 ft | 228 kts | 84° |
| 2026-04-29 15:43 | 37.43164 | 14.65698 | 4738 ft | 228 kts | 85° |
| 2026-04-29 15:43 | 37.43337 | 14.67653 | 4362 ft | 227 kts | 85° |
| 2026-04-29 15:44 | 37.43510 | 14.69629 | 3992 ft | 227 kts | 85° |
| 2026-04-29 15:44 | 37.43683 | 14.71609 | 3612 ft | 227 kts | 84° |
| 2026-04-29 15:44 | 37.43855 | 14.73578 | 3256 ft | 226 kts | 84° |
| 2026-04-29 15:44 | 37.44025 | 14.75524 | 3023 ft | 220 kts | 84° |
| 2026-04-29 15:45 | 37.44189 | 14.77416 | 2991 ft | 216 kts | 84° |
| 2026-04-29 15:45 | 37.44351 | 14.79296 | 2993 ft | 212 kts | 84° |
| 2026-04-29 15:45 | 37.44507 | 14.81100 | 2993 ft | 204 kts | 84° |
| 2026-04-29 15:45 | 37.44657 | 14.82829 | 2993 ft | 195 kts | 84° |
| 2026-04-29 15:46 | 37.44802 | 14.84511 | 2995 ft | 193 kts | 84° |
| 2026-04-29 15:46 | 37.44945 | 14.86172 | 3020 ft | 187 kts | 84° |
| 2026-04-29 15:46 | 37.45085 | 14.87796 | 3003 ft | 187 kts | 84° |
| 2026-04-29 15:46 | 37.45225 | 14.89425 | 2990 ft | 187 kts | 84° |
| 2026-04-29 15:47 | 37.45365 | 14.91054 | 2991 ft | 187 kts | 84° |
| 2026-04-29 15:47 | 37.45503 | 14.92678 | 3002 ft | 187 kts | 84° |
| 2026-04-29 15:47 | 37.45643 | 14.94312 | 2862 ft | 187 kts | 84° |
| 2026-04-29 15:47 | 37.45778 | 14.95875 | 2634 ft | 173 kts | 85° |
| 2026-04-29 15:48 | 37.45903 | 14.97331 | 2311 ft | 164 kts | 86° |
| 2026-04-29 15:48 | 37.46022 | 14.98736 | 1964 ft | 157 kts | 86° |
| 2026-04-29 15:48 | 37.46121 | 15.00072 | 1601 ft | 153 kts | 87° |
| 2026-04-29 15:48 | 37.46192 | 15.01389 | 1242 ft | 148 kts | 85° |
| 2026-04-29 15:49 | 37.46302 | 15.02678 | 774 ft | 147 kts | 83° |
| 2026-04-29 15:49 | 37.46410 | 15.03955 | 325 ft | 144 kts | 79° |
| 2026-04-29 15:49 | 37.46547 | 15.05129 | 104 ft | 129 kts | 79° |
| 2026-04-29 15:49 | 37.46641 | 15.06160 | 38 ft | 102 kts | 84° |
| 2026-04-29 15:50 | 37.46701 | 15.06758 | 38 ft | 35 kts | 83° |
| 2026-04-29 15:50 | 37.46751 | 15.06925 | 38 ft | 9 kts | 12° |
| 2026-04-29 15:50 | 37.46801 | 15.06899 | 36 ft | 10 kts | 330° |
| 2026-04-29 15:50 | 37.46848 | 15.06832 | 35 ft | 11 kts | 279° |
| 2026-04-29 15:51 | 37.46853 | 15.06724 | 35 ft | 10 kts | 270° |
| 2026-04-29 15:51 | 37.46874 | 15.06691 | 35 ft | 8 kts | 336° |
| 2026-04-29 15:51 | 37.46917 | 15.06682 | 35 ft | 0 kts | 354° |
| 2026-04-29 15:51 | 37.46919 | 15.06682 | 35 ft | 0 kts | 354° |